Time;durP1;ratioP1;P1;durP2;ratioP2;P2;SDS_P1;SDS_P2;PMS_P1;PMS_P2;Temp;Humidity;BMP_temperature;BMP_pressure;BME280_temperature;BME280_humidity;BME280_pressure;Samples;Min_cycle;Max_cycle;Signal;HPM_P1;HPM_P2
2022/02/21 00:00:55;;;;;;;0.40;0.40;;;;;;;5.24;100.00;96173.28;5066409;28;20521;-73
2022/02/21 00:03:21;;;;;;;0.30;0.30;;;;;;;5.18;99.70;96162.41;5066390;28;20061;-74
2022/02/21 00:05:48;;;;;;;0.38;0.38;;;;;;;5.15;100.00;96154.88;5065861;28;20017;-73
2022/02/21 00:08:14;;;;;;;0.30;0.30;;;;;;;5.13;100.00;96138.69;5065871;28;20025;-74
2022/02/21 00:10:39;;;;;;;0.30;0.30;;;;;;;5.22;99.72;96127.09;5065902;28;20025;-74
2022/02/21 00:13:05;;;;;;;0.30;0.30;;;;;;;5.19;99.93;96130.63;5065557;28;20174;-74
2022/02/21 00:15:30;;;;;;;0.30;0.30;;;;;;;5.23;99.91;96120.19;5065750;28;20271;-74
2022/02/21 00:17:56;;;;;;;0.38;0.38;;;;;;;5.16;99.87;96097.38;5065747;28;20051;-74
2022/02/21 00:20:22;;;;;;;0.40;0.40;;;;;;;5.27;99.80;96101.09;5047676;28;20028;-74
2022/02/21 00:22:48;;;;;;;0.30;0.30;;;;;;;5.25;99.75;96088.34;5065920;28;20035;-75
2022/02/21 00:25:13;;;;;;;0.30;0.30;;;;;;;5.24;99.81;96073.00;5065550;28;20037;-72
2022/02/21 00:27:38;;;;;;;0.30;0.30;;;;;;;5.23;99.91;96061.03;5064714;28;20021;-73
2022/02/21 00:30:05;;;;;;;0.30;0.30;;;;;;;5.12;100.00;96033.38;5065490;28;20048;-73
2022/02/21 00:32:31;;;;;;;0.30;0.30;;;;;;;5.24;100.00;96042.94;5065087;28;20021;-74
2022/02/21 00:34:56;;;;;;;0.40;0.40;;;;;;;5.24;100.00;96034.44;5064600;28;20029;-73
2022/02/21 00:37:22;;;;;;;0.30;0.30;;;;;;;5.23;100.00;96025.03;5065019;28;20025;-74
2022/02/21 00:39:47;;;;;;;0.50;0.50;;;;;;;5.26;99.99;96012.00;5065616;28;20366;-74
2022/02/21 00:42:13;;;;;;;0.30;0.30;;;;;;;5.26;100.00;96006.88;5047236;28;20017;-74
2022/02/21 00:44:39;;;;;;;0.40;0.40;;;;;;;5.25;99.98;96000.91;5065114;28;20043;-74
2022/02/21 00:47:06;;;;;;;0.30;0.30;;;;;;;5.26;100.00;95989.69;5065262;28;20021;-74
2022/02/21 00:49:31;;;;;;;0.30;0.30;;;;;;;5.22;100.00;95972.81;5065206;28;20041;-74
2022/02/21 00:51:58;;;;;;;0.30;0.30;;;;;;;5.21;100.00;95971.97;5065206;28;20031;-73
2022/02/21 00:54:30;;;;;;;0.30;0.30;;;;;;;5.25;100.00;95958.94;5047017;28;20021;-74
2022/02/21 00:56:55;;;;;;;0.47;0.47;;;;;;;5.24;100.00;95958.09;5064965;28;20024;-74
2022/02/21 00:59:21;;;;;;;0.30;0.30;;;;;;;5.25;100.00;95946.06;5047133;28;20027;-73
2022/02/21 01:01:46;;;;;;;0.40;0.40;;;;;;;5.24;100.00;95949.56;5065276;28;20025;-74
2022/02/21 01:04:11;;;;;;;0.30;0.30;;;;;;;5.20;99.85;95933.50;5065586;28;20021;-74
2022/02/21 01:06:37;;;;;;;0.38;0.38;;;;;;;5.16;100.00;95919.19;5065080;28;20029;-73
2022/02/21 01:09:03;;;;;;;0.30;0.30;;;;;;;5.16;100.00;95908.91;5065101;28;20021;-73
2022/02/21 01:11:30;;;;;;;0.30;0.30;;;;;;;5.19;100.00;95909.53;5065102;28;20029;-73
2022/02/21 01:13:57;;;;;;;0.30;0.30;;;;;;;5.18;100.00;95907.03;5064720;28;20035;-74
2022/02/21 01:16:24;;;;;;;0.30;0.30;;;;;;;5.23;100.00;95906.75;5047078;28;20021;-74
2022/02/21 01:18:50;;;;;;;0.30;0.30;;;;;;;5.20;100.00;95887.22;5064429;28;20431;-74
2022/02/21 01:21:16;;;;;;;0.32;0.32;;;;;;;5.23;100.00;95875.91;5064628;28;20021;-72
2022/02/21 01:23:41;;;;;;;0.30;0.30;;;;;;;5.25;100.00;95866.38;5064893;28;20021;-72
2022/02/21 01:26:07;;;;;;;0.35;0.35;;;;;;;5.19;100.00;95858.09;5046420;28;20400;-72
2022/02/21 01:28:32;;;;;;;0.40;0.40;;;;;;;5.16;100.00;95847.19;5064463;28;20025;-74
2022/02/21 01:30:58;;;;;;;0.30;0.30;;;;;;;5.23;100.00;95850.19;5064652;28;20028;-74
2022/02/21 01:33:24;;;;;;;0.40;0.40;;;;;;;5.23;100.00;95829.63;5064527;28;20036;-73
2022/02/21 01:35:49;;;;;;;0.30;0.30;;;;;;;5.21;100.00;95828.00;5063912;28;20075;-74
2022/02/21 01:38:15;;;;;;;0.40;0.40;;;;;;;5.22;100.00;95823.69;5064076;28;20492;-73
2022/02/21 01:40:40;;;;;;;0.40;0.40;;;;;;;5.23;100.00;95809.06;5063152;28;20032;-73
2022/02/21 01:43:05;;;;;;;0.30;0.30;;;;;;;5.17;100.00;95800.00;5045838;28;20020;-74
2022/02/21 01:45:31;;;;;;;0.35;0.35;;;;;;;5.24;100.00;95803.03;5063978;28;20432;-73
2022/02/21 01:47:56;;;;;;;0.40;0.40;;;;;;;5.26;100.00;95798.59;5063977;28;20017;-73
2022/02/21 01:50:21;;;;;;;0.30;0.30;;;;;;;5.27;100.00;95782.25;5063984;28;20600;-73
2022/02/21 01:52:48;;;;;;;0.30;0.30;;;;;;;5.24;100.00;95782.44;5064038;28;20283;-73
2022/02/21 01:55:13;;;;;;;0.40;0.40;;;;;;;5.24;100.00;95772.97;5063758;28;20024;-73
2022/02/21 01:57:41;;;;;;;0.30;0.30;;;;;;;5.23;100.00;95768.75;5063547;28;20102;-73
2022/02/21 02:00:07;;;;;;;0.30;0.30;;;;;;;5.17;100.00;95759.69;5063777;28;20031;-73
2022/02/21 02:02:33;;;;;;;0.40;0.40;;;;;;;5.16;100.00;95763.16;5063692;28;20366;-73
2022/02/21 02:04:58;;;;;;;0.30;0.30;;;;;;;5.16;100.00;95760.59;5063674;28;20028;-73
2022/02/21 02:07:24;;;;;;;0.20;0.20;;;;;;;5.19;100.00;95754.47;5063525;28;20033;-73
2022/02/21 02:09:49;;;;;;;0.30;0.30;;;;;;;5.18;100.00;95748.47;5063717;28;20028;-73
2022/02/21 02:12:14;;;;;;;0.35;0.35;;;;;;;5.14;99.88;95749.59;5045292;28;20021;-72
2022/02/21 02:14:43;;;;;;;0.30;0.30;;;;;;;5.14;99.82;95741.88;5045518;28;20051;-73
2022/02/21 02:17:10;;;;;;;0.30;0.30;;;;;;;5.14;99.67;95738.47;5046093;28;20028;-72
2022/02/21 02:19:37;;;;;;;0.30;0.30;;;;;;;5.14;99.62;95738.47;5045787;28;20465;-72
2022/02/21 02:22:20;;;;;;;0.30;0.30;;;;;;;5.10;99.63;95737.03;5045523;28;20564;-71
2022/02/21 02:24:47;;;;;;;0.30;0.30;;;;;;;5.06;99.22;95732.06;5063636;28;20025;-72
2022/02/21 02:27:14;;;;;;;0.35;0.35;;;;;;;5.03;99.29;95723.72;5043380;28;20041;-72
2022/02/21 02:29:41;;;;;;;0.30;0.30;;;;;;;5.01;99.31;95717.84;5043544;28;20036;-72
2022/02/21 02:32:09;;;;;;;0.30;0.30;;;;;;;4.94;99.25;95710.53;5043389;28;20030;-72
2022/02/21 02:34:38;;;;;;;0.40;0.40;;;;;;;4.94;99.42;95707.13;5041822;28;20025;-72
2022/02/21 02:37:04;;;;;;;0.30;0.30;;;;;;;4.90;99.54;95709.06;5043273;28;20017;-72
2022/02/21 02:39:29;;;;;;;0.40;0.40;;;;;;;4.92;99.30;95712.34;5042095;28;20048;-73
2022/02/21 02:41:55;;;;;;;0.40;0.40;;;;;;;4.92;99.49;95709.78;5043211;28;20430;-73
2022/02/21 02:44:20;;;;;;;0.30;0.30;;;;;;;4.86;99.45;95702.44;5043257;28;20508;-72
2022/02/21 02:46:46;;;;;;;0.30;0.30;;;;;;;4.86;99.35;95720.44;5043101;28;20476;-72
2022/02/21 02:49:11;;;;;;;0.30;0.30;;;;;;;4.77;99.25;95705.59;5043060;28;20021;-72
2022/02/21 02:51:37;;;;;;;0.40;0.40;;;;;;;4.78;99.11;95712.38;5045320;28;20033;-72
2022/02/21 02:54:06;;;;;;;0.40;0.40;;;;;;;4.73;99.25;95716.97;5045892;28;20163;-73
2022/02/21 02:56:31;;;;;;;0.40;0.40;;;;;;;4.68;99.08;95718.06;5045510;28;20021;-75
2022/02/21 02:58:56;;;;;;;0.30;0.30;;;;;;;4.65;99.18;95714.88;5047006;28;20075;-72
2022/02/21 03:01:22;;;;;;;0.30;0.30;;;;;;;4.64;99.19;95716.59;5047304;28;20029;-72
2022/02/21 03:04:25;;;;;;;0.30;0.30;;;;;;;4.57;99.06;95718.72;5047159;28;20046;-73
2022/02/21 03:06:50;;;;;;;0.30;0.30;;;;;;;4.50;99.06;95716.59;5047084;28;20470;-72
2022/02/21 03:09:16;;;;;;;0.30;0.30;;;;;;;4.46;99.09;95727.06;5047004;28;20071;-72
2022/02/21 03:14:26;;;;;;;0.30;0.30;;;;;;;4.38;99.06;95733.56;5057166;23;20107;-63
2022/02/21 03:16:52;;;;;;;0.30;0.30;;;;;;;4.22;98.62;95726.75;4996222;28;20270;-63
2022/02/21 03:19:20;;;;;;;0.30;0.30;;;;;;;4.20;98.44;95739.69;5022709;28;20021;-64
2022/02/21 03:21:47;;;;;;;0.38;0.38;;;;;;;4.08;98.26;95745.53;5046076;28;20040;-63
2022/02/21 03:24:13;;;;;;;0.40;0.40;;;;;;;4.00;98.21;95745.13;5046565;28;20025;-64
2022/02/21 03:26:38;;;;;;;0.32;0.32;;;;;;;3.91;98.27;95747.31;5045190;28;20124;-64
2022/02/21 03:29:03;;;;;;;0.35;0.35;;;;;;;3.88;98.47;95749.22;5045627;28;20021;-63
2022/02/21 03:31:29;;;;;;;0.40;0.40;;;;;;;3.82;98.22;95760.66;5046716;28;20018;-63
2022/02/21 03:33:54;;;;;;;0.35;0.35;;;;;;;3.76;98.35;95755.88;5046658;28;20358;-64
2022/02/21 03:36:20;;;;;;;0.30;0.30;;;;;;;3.70;98.15;95757.03;5046532;28;20033;-63
2022/02/21 03:38:45;;;;;;;0.30;0.30;;;;;;;3.62;98.25;95762.59;5046716;28;20036;-63
2022/02/21 03:41:11;;;;;;;0.40;0.40;;;;;;;3.60;98.22;95766.97;5046662;28;20100;-63
2022/02/21 03:43:36;;;;;;;0.38;0.38;;;;;;;3.60;98.42;95766.97;5046430;28;20026;-63
2022/02/21 03:46:02;;;;;;;0.30;0.30;;;;;;;3.59;98.50;95760.22;5046466;28;20083;-63
2022/02/21 03:48:27;;;;;;;0.40;0.40;;;;;;;3.58;98.18;95761.09;5046582;28;20033;-63
2022/02/21 03:50:53;;;;;;;0.40;0.40;;;;;;;3.58;98.42;95763.66;5046430;28;20033;-64
2022/02/21 03:53:18;;;;;;;0.40;0.40;;;;;;;3.58;98.34;95761.09;5046520;28;20029;-63
2022/02/21 03:55:45;;;;;;;0.40;0.40;;;;;;;3.57;98.68;95762.88;5046219;28;20048;-64
2022/02/21 03:58:11;;;;;;;0.30;0.30;;;;;;;3.55;98.62;95751.84;5046277;28;20030;-63
2022/02/21 04:00:36;;;;;;;0.40;0.40;;;;;;;3.50;98.70;95755.59;5046253;28;20032;-63
2022/02/21 04:03:02;;;;;;;0.40;0.40;;;;;;;3.56;98.77;95762.94;5045251;28;20018;-64
2022/02/21 04:05:27;;;;;;;0.40;0.40;;;;;;;3.44;98.86;95741.34;5046164;28;20462;-64
2022/02/21 04:07:53;;;;;;;0.40;0.40;;;;;;;3.54;98.62;95759.63;5046115;28;20097;-64
2022/02/21 04:10:18;;;;;;;0.40;0.40;;;;;;;3.54;98.80;95762.19;5046333;28;20073;-64
2022/02/21 04:12:44;;;;;;;0.30;0.30;;;;;;;3.54;98.92;95757.06;5045869;28;20029;-63
2022/02/21 04:15:09;;;;;;;0.40;0.40;;;;;;;3.53;98.92;95758.78;5046005;28;20032;-64
2022/02/21 04:17:46;;;;;;;0.30;0.30;;;;;;;3.52;98.91;95767.41;5044620;28;20027;-64
2022/02/21 04:20:15;;;;;;;0.30;0.30;;;;;;;3.53;98.91;95771.63;5046007;28;20029;-64
2022/02/21 04:22:41;;;;;;;0.30;0.30;;;;;;;3.50;98.99;95758.16;5028544;28;20025;-64
2022/02/21 04:25:08;;;;;;;0.40;0.40;;;;;;;3.53;98.91;95769.06;5045950;28;20022;-64
2022/02/21 04:27:47;;;;;;;0.32;0.32;;;;;;;3.52;98.96;95766.56;5045865;28;20393;-63
2022/02/21 04:30:16;;;;;;;0.40;0.40;;;;;;;3.49;98.90;95762.44;5045760;28;20045;-64
2022/02/21 04:32:43;;;;;;;0.30;0.30;;;;;;;3.51;98.83;95764.94;5045638;28;20049;-64
2022/02/21 04:35:10;;;;;;;0.40;0.40;;;;;;;3.52;98.92;95764.00;5045616;28;20017;-64
2022/02/21 04:37:36;;;;;;;0.40;0.40;;;;;;;3.51;99.04;95762.38;5045444;28;20029;-63
2022/02/21 04:40:04;;;;;;;0.35;0.35;;;;;;;3.50;99.09;95763.28;5045496;28;20033;-63
2022/02/21 04:42:30;;;;;;;0.30;0.30;;;;;;;3.47;99.01;95759.97;5045278;28;20029;-65
2022/02/21 04:44:55;;;;;;;0.40;0.40;;;;;;;3.45;98.95;95763.53;5045394;28;20021;-63
2022/02/21 04:47:20;;;;;;;0.40;0.40;;;;;;;3.45;98.86;95764.34;5045342;28;20389;-63
2022/02/21 04:49:46;;;;;;;0.40;0.40;;;;;;;3.45;98.68;95764.34;5045240;28;20113;-64
2022/02/21 04:52:11;;;;;;;0.30;0.30;;;;;;;3.46;99.02;95775.44;5044163;28;20030;-63
2022/02/21 04:54:36;;;;;;;0.40;0.40;;;;;;;3.45;99.01;95768.66;5045195;28;20022;-63
2022/02/21 04:57:02;;;;;;;0.40;0.40;;;;;;;3.42;98.97;95761.94;5045229;28;20033;-63
2022/02/21 04:59:27;;;;;;;0.40;0.40;;;;;;;3.37;98.81;95766.50;5045293;28;20363;-64
2022/02/21 05:01:53;;;;;;;0.40;0.40;;;;;;;3.39;99.00;95774.94;5045047;28;20026;-63
2022/02/21 05:04:18;;;;;;;0.40;0.40;;;;;;;3.42;99.11;95772.22;5045122;28;20436;-63
2022/02/21 05:06:43;;;;;;;0.30;0.30;;;;;;;3.38;98.97;95770.72;5045226;28;20041;-63
2022/02/21 05:09:08;;;;;;;0.35;0.35;;;;;;;3.41;99.07;95779.97;5044894;28;20029;-63
2022/02/21 05:11:34;;;;;;;0.40;0.40;;;;;;;3.42;99.18;95774.78;5044952;28;20026;-63
2022/02/21 05:13:59;;;;;;;0.30;0.30;;;;;;;3.45;99.19;95776.34;5044272;28;20049;-64
2022/02/21 05:16:24;;;;;;;0.30;0.30;;;;;;;3.46;99.19;95781.41;5044994;28;20085;-64
2022/02/21 05:18:50;;;;;;;0.30;0.30;;;;;;;3.46;99.22;95781.41;5044814;28;20059;-64
2022/02/21 05:21:15;;;;;;;0.40;0.40;;;;;;;3.52;99.35;95787.09;5044762;28;20047;-65
2022/02/21 05:23:40;;;;;;;0.30;0.30;;;;;;;3.52;99.41;95790.47;5044782;28;20279;-64
2022/02/21 05:26:07;;;;;;;0.40;0.40;;;;;;;3.52;99.58;95793.06;5044790;28;20125;-64
2022/02/21 05:28:33;;;;;;;0.40;0.40;;;;;;;3.54;99.58;95798.94;5044777;28;20029;-64
2022/02/21 05:30:59;;;;;;;0.40;0.40;;;;;;;3.55;99.35;95802.31;5044786;28;20029;-64
2022/02/21 05:33:25;;;;;;;0.40;0.40;;;;;;;3.59;99.59;95806.38;5044579;28;20029;-64
2022/02/21 05:35:50;;;;;;;0.40;0.40;;;;;;;3.60;99.57;95813.13;5044523;28;20018;-64
2022/02/21 05:38:15;;;;;;;0.40;0.40;;;;;;;3.62;99.62;95813.91;5044391;28;20036;-64
2022/02/21 05:40:41;;;;;;;0.30;0.30;;;;;;;3.64;99.48;95819.78;5044190;28;20032;-64
2022/02/21 05:43:06;;;;;;;0.38;0.38;;;;;;;3.63;99.66;95815.53;5043987;28;20075;-64
2022/02/21 05:45:31;;;;;;;0.40;0.40;;;;;;;3.57;99.22;95816.72;5044051;28;20021;-65
2022/02/21 05:47:57;;;;;;;0.40;0.40;;;;;;;3.47;99.08;95829.19;5044115;28;20029;-64
2022/02/21 05:50:22;;;;;;;0.40;0.40;;;;;;;3.39;98.88;95831.34;5044287;28;20025;-65
2022/02/21 05:52:47;;;;;;;0.40;0.40;;;;;;;3.27;98.70;95837.13;5042747;28;20033;-65
2022/02/21 05:55:13;;;;;;;0.40;0.40;;;;;;;3.17;98.56;95842.72;5043860;28;20049;-65
2022/02/21 05:57:39;;;;;;;0.30;0.30;;;;;;;3.09;98.61;95845.69;5043861;28;20037;-63
2022/02/21 06:00:06;;;;;;;0.40;0.40;;;;;;;3.04;98.59;95846.81;5044003;28;20075;-63
2022/02/21 06:02:32;;;;;;;0.40;0.40;;;;;;;2.99;98.63;95859.06;5044109;28;20417;-64
2022/02/21 06:04:59;;;;;;;0.40;0.40;;;;;;;2.92;98.43;95864.50;5044162;28;20472;-63
2022/02/21 06:07:24;;;;;;;0.30;0.30;;;;;;;2.87;98.63;95860.50;5044009;28;20025;-63
2022/02/21 06:09:50;;;;;;;0.40;0.40;;;;;;;2.80;98.53;95872.78;5043985;28;20025;-64
2022/02/21 06:12:15;;;;;;;0.30;0.30;;;;;;;2.72;98.47;95874.00;5043551;28;20087;-64
2022/02/21 06:14:40;;;;;;;0.50;0.50;;;;;;;2.62;98.58;95872.00;5043733;28;20069;-63
2022/02/21 06:17:06;;;;;;;0.35;0.35;;;;;;;2.57;98.43;95872.22;5043894;28;20018;-63
2022/02/21 06:19:31;;;;;;;0.40;0.40;;;;;;;2.52;98.43;95882.69;5043813;28;20037;-63
2022/02/21 06:21:57;;;;;;;0.40;0.40;;;;;;;2.51;98.42;95895.56;5043625;28;20029;-63
2022/02/21 06:24:26;;;;;;;0.40;0.40;;;;;;;2.46;98.56;95895.78;5043815;28;20079;-63
2022/02/21 06:26:51;;;;;;;0.40;0.40;;;;;;;2.44;98.55;95895.88;5043244;28;20093;-63
2022/02/21 06:29:17;;;;;;;0.32;0.32;;;;;;;2.39;98.58;95895.25;5043429;28;20032;-64
2022/02/21 06:31:42;;;;;;;0.30;0.30;;;;;;;2.32;98.49;95894.72;5042347;28;20032;-64
2022/02/21 06:34:08;;;;;;;0.40;0.40;;;;;;;2.28;98.41;95911.13;5043539;28;20033;-64
2022/02/21 06:36:34;;;;;;;0.35;0.35;;;;;;;2.25;98.36;95911.28;5043628;28;20048;-65
2022/02/21 06:38:59;;;;;;;0.40;0.40;;;;;;;2.25;98.69;95924.06;5043521;28;20025;-64
2022/02/21 06:41:25;;;;;;;0.40;0.40;;;;;;;2.21;98.59;95931.06;5043545;28;20643;-63
2022/02/21 06:43:51;;;;;;;0.40;0.40;;;;;;;2.18;98.72;95931.19;5042978;28;20036;-64
2022/02/21 06:46:17;;;;;;;0.40;0.40;;;;;;;2.06;98.61;95927.47;5043413;28;20022;-64
2022/02/21 06:48:42;;;;;;;0.40;0.40;;;;;;;2.13;98.43;95945.09;5042794;28;20107;-65
2022/02/21 06:51:08;;;;;;;0.30;0.30;;;;;;;2.07;98.59;95952.16;5041190;28;20060;-64
2022/02/21 06:53:34;;;;;;;0.40;0.40;;;;;;;2.06;98.50;95947.13;5043382;28;20033;-65
2022/02/21 06:55:59;;;;;;;0.40;0.40;;;;;;;1.99;98.46;95956.81;5043236;28;20052;-64
2022/02/21 06:58:24;;;;;;;0.40;0.40;;;;;;;1.93;98.49;95965.56;5043332;28;20017;-64
2022/02/21 07:00:50;;;;;;;0.32;0.32;;;;;;;1.88;98.44;95971.81;5043422;28;20064;-63
2022/02/21 07:03:15;;;;;;;0.40;0.40;;;;;;;1.83;98.45;95985.63;5043568;28;20083;-65
2022/02/21 07:05:40;;;;;;;0.40;0.40;;;;;;;1.81;98.50;95989.97;5043521;28;20025;-64
2022/02/21 07:08:07;;;;;;;0.43;0.43;;;;;;;1.80;98.58;95959.38;5043395;28;20029;-64
2022/02/21 07:10:32;;;;;;;0.38;0.38;;;;;;;1.75;98.49;96000.47;5043556;28;20272;-64
2022/02/21 07:12:58;;;;;;;0.40;0.40;;;;;;;1.69;98.40;96011.78;5043034;28;20022;-64
2022/02/21 07:15:23;;;;;;;0.50;0.50;;;;;;;1.69;98.42;96018.66;5043394;28;20026;-63
2022/02/21 07:17:49;;;;;;;0.38;0.38;;;;;;;1.68;98.45;96032.31;5043287;28;20025;-64
2022/02/21 07:20:15;;;;;;;0.35;0.35;;;;;;;1.66;98.41;96041.78;5043262;28;20481;-63
2022/02/21 07:22:42;;;;;;;0.40;0.40;;;;;;;1.59;98.34;96033.56;5043319;28;20034;-63
2022/02/21 07:25:13;;;;;;;0.40;0.40;;;;;;;1.56;98.35;96046.47;5043195;28;20011;-63
2022/02/21 07:27:50;;;;;;;0.43;0.43;;;;;;;1.55;98.55;96044.81;5042159;28;20120;-64
2022/02/21 07:30:18;;;;;;;0.43;0.43;;;;;;;1.54;98.46;96071.25;5042530;28;20030;-64
2022/02/21 07:32:44;;;;;;;0.40;0.40;;;;;;;1.52;98.47;96071.31;5041965;28;20125;-64
2022/02/21 07:35:10;;;;;;;0.40;0.40;;;;;;;1.47;98.49;96075.81;5041603;28;20032;-63
2022/02/21 07:37:39;;;;;;;0.40;0.40;;;;;;;1.45;98.31;96090.38;5041110;28;20025;-63
2022/02/21 07:40:05;;;;;;;0.38;0.38;;;;;;;1.42;98.27;96100.72;5046327;28;20025;-63
2022/02/21 07:42:30;;;;;;;0.40;0.40;;;;;;;1.38;98.48;96099.16;5046181;28;20029;-63
2022/02/21 07:44:56;;;;;;;0.40;0.40;;;;;;;1.36;98.26;96106.91;5046384;28;20021;-63
2022/02/21 07:47:21;;;;;;;0.50;0.50;;;;;;;1.36;98.27;96124.78;5044819;28;20026;-63
2022/02/21 07:49:47;;;;;;;0.40;0.40;;;;;;;1.32;98.35;96121.56;5046130;28;20384;-63
2022/02/21 07:52:12;;;;;;;0.30;0.30;;;;;;;1.30;98.39;96128.44;5046299;28;20093;-63
2022/02/21 07:54:38;;;;;;;0.40;0.40;;;;;;;1.28;98.39;96139.63;5046088;28;20499;-63
2022/02/21 07:57:06;;;;;;;0.40;0.40;;;;;;;1.29;98.36;96152.34;5046330;28;20029;-63
2022/02/21 07:59:31;;;;;;;0.40;0.40;;;;;;;1.31;98.51;96155.63;5046612;28;20022;-64
2022/02/21 08:01:57;;;;;;;0.40;0.40;;;;;;;1.34;98.48;96159.81;5046486;28;20036;-63
2022/02/21 08:04:22;;;;;;;0.40;0.40;;;;;;;1.36;98.73;96178.44;5046420;28;20033;-63
2022/02/21 08:06:47;;;;;;;0.40;0.40;;;;;;;1.34;98.67;96170.03;5046314;28;20025;-63
2022/02/21 08:09:13;;;;;;;0.40;0.40;;;;;;;1.31;98.56;96170.97;5045785;28;20036;-62
2022/02/21 08:11:39;;;;;;;0.40;0.40;;;;;;;1.34;98.53;96187.94;5045869;28;20060;-64
2022/02/21 08:14:05;;;;;;;0.40;0.40;;;;;;;1.31;98.52;96195.72;5045424;28;20037;-62
2022/02/21 08:16:31;;;;;;;0.30;0.30;;;;;;;1.30;98.50;96199.13;5045712;28;20029;-62
2022/02/21 08:18:56;;;;;;;0.40;0.40;;;;;;;1.29;98.34;96203.44;5044398;28;20033;-62
2022/02/21 08:21:21;;;;;;;0.30;0.30;;;;;;;1.25;98.32;96212.09;5045532;28;20045;-62
2022/02/21 08:23:47;;;;;;;0.43;0.43;;;;;;;1.32;98.38;96207.59;5045568;28;20037;-62
2022/02/21 08:26:12;;;;;;;0.38;0.38;;;;;;;1.35;98.52;96217.69;5045586;28;20589;-62
2022/02/21 08:28:37;;;;;;;0.45;0.45;;;;;;;1.33;98.43;96216.91;5045364;28;20025;-62
2022/02/21 08:31:03;;;;;;;0.40;0.40;;;;;;;1.36;98.36;96239.78;5045461;28;20056;-63
2022/02/21 08:33:28;;;;;;;0.40;0.40;;;;;;;1.31;98.39;96234.03;5045457;28;20029;-63
2022/02/21 08:35:54;;;;;;;0.40;0.40;;;;;;;1.40;98.61;96243.06;5045212;28;20024;-65
2022/02/21 08:38:19;;;;;;;0.40;0.40;;;;;;;1.42;98.44;96244.66;5045290;28;20034;-63
2022/02/21 08:40:44;;;;;;;0.40;0.40;;;;;;;1.41;98.49;96232.78;5045421;28;20026;-63
2022/02/21 08:43:10;;;;;;;0.40;0.40;;;;;;;1.40;98.13;96248.19;5045184;28;20024;-64
2022/02/21 08:45:35;;;;;;;0.40;0.40;;;;;;;1.39;98.20;96270.34;5045257;28;20021;-62
2022/02/21 08:48:01;;;;;;;0.40;0.40;;;;;;;1.42;98.17;96279.63;5045430;28;20272;-63
2022/02/21 08:50:26;;;;;;;0.40;0.40;;;;;;;1.42;98.28;96290.66;5044829;28;20555;-63
2022/02/21 08:52:51;;;;;;;0.40;0.40;;;;;;;1.40;97.98;96292.47;5045288;28;20021;-63
2022/02/21 08:55:18;;;;;;;0.30;0.30;;;;;;;1.36;98.12;96298.56;5045120;28;20116;-63
2022/02/21 08:57:44;;;;;;;0.30;0.30;;;;;;;1.35;98.17;96295.19;5044967;28;20030;-64
2022/02/21 09:00:12;;;;;;;0.40;0.40;;;;;;;1.35;98.15;96302.03;5044934;28;20090;-64
2022/02/21 09:02:37;;;;;;;0.40;0.40;;;;;;;1.35;98.22;96313.09;5044971;28;20500;-63
2022/02/21 09:05:03;;;;;;;0.40;0.40;;;;;;;1.34;98.19;96316.50;5044964;28;20025;-64
2022/02/21 09:07:29;;;;;;;0.40;0.40;;;;;;;1.34;98.03;96318.25;5044959;28;20021;-64
2022/02/21 09:09:54;;;;;;;0.50;0.50;;;;;;;1.33;98.18;96321.69;5044764;28;20437;-64
2022/02/21 09:12:20;;;;;;;0.40;0.40;;;;;;;1.38;98.08;96336.84;5044663;28;20021;-63
2022/02/21 09:14:47;;;;;;;0.50;0.50;;;;;;;1.34;98.10;96336.94;5044675;28;20071;-63
2022/02/21 09:17:14;;;;;;;0.47;0.47;;;;;;;1.28;98.04;96336.38;5044570;28;20029;-63
2022/02/21 09:19:40;;;;;;;0.45;0.45;;;;;;;1.37;98.22;96351.38;5044709;28;20025;-64
2022/02/21 09:22:05;;;;;;;0.40;0.40;;;;;;;1.43;98.50;96348.56;5044702;28;20025;-64
2022/02/21 09:24:31;;;;;;;0.40;0.40;;;;;;;1.50;98.46;96368.78;5044411;28;20085;-64
2022/02/21 09:26:56;;;;;;;0.30;0.30;;;;;;;1.48;98.26;96363.75;5044492;28;20065;-63
2022/02/21 09:29:23;;;;;;;0.30;0.30;;;;;;;1.50;98.48;96374.75;5044195;28;20037;-63
2022/02/21 09:31:48;;;;;;;0.45;0.45;;;;;;;1.55;98.27;96359.25;5044578;28;20045;-64
2022/02/21 09:34:14;;;;;;;0.40;0.40;;;;;;;1.54;98.27;96385.66;5042915;28;20063;-63
2022/02/21 09:36:39;;;;;;;0.40;0.40;;;;;;;1.53;98.22;96386.56;5044328;28;20026;-63
2022/02/21 09:39:04;;;;;;;0.40;0.40;;;;;;;1.53;98.36;96381.47;5044218;28;20132;-62
2022/02/21 09:41:30;;;;;;;0.30;0.30;;;;;;;1.53;98.48;96400.19;5044199;28;20061;-63
2022/02/21 09:43:57;;;;;;;0.40;0.40;;;;;;;1.58;98.48;96413.63;5043972;28;20059;-63
2022/02/21 09:46:30;;;;;;;0.40;0.40;;;;;;;1.62;98.73;96414.34;5044111;28;20493;-63
2022/02/21 09:48:58;;;;;;;0.40;0.40;;;;;;;1.61;98.60;96416.06;5044131;28;20021;-63
2022/02/21 09:51:23;;;;;;;0.40;0.40;;;;;;;1.60;98.69;96426.34;5043886;28;20025;-62
2022/02/21 09:53:49;;;;;;;0.40;0.40;;;;;;;1.59;98.92;96435.75;5043885;28;20034;-61
2022/02/21 09:56:15;;;;;;;0.40;0.40;;;;;;;1.60;98.79;96444.25;5043778;28;20033;-62
2022/02/21 09:58:40;;;;;;;0.40;0.40;;;;;;;1.60;98.80;96441.69;5043468;28;20531;-62
2022/02/21 10:01:07;;;;;;;0.40;0.40;;;;;;;1.59;98.88;96470.72;5042969;28;20081;-61
2022/02/21 10:03:45;;;;;;;0.40;0.40;;;;;;;1.56;98.82;96470.81;5043682;28;20465;-63
2022/02/21 10:06:22;;;;;;;0.40;0.40;;;;;;;1.50;98.68;96459.09;5043745;28;20009;-63
2022/02/21 10:09:08;;;;;;;0.40;0.40;;;;;;;1.46;98.52;96467.75;5043572;28;20021;-62
2022/02/21 10:11:35;;;;;;;0.40;0.40;;;;;;;1.36;98.41;96491.09;5043848;28;20080;-62
2022/02/21 10:14:03;;;;;;;0.40;0.40;;;;;;;1.29;98.40;96499.84;5043326;28;20052;-62
2022/02/21 10:16:51;;;;;;;0.43;0.43;;;;;;;1.22;98.33;96499.22;5043377;28;20056;-62
2022/02/21 10:19:24;;;;;;;0.40;0.40;;;;;;;1.18;98.30;96501.94;5043608;28;20044;-63
2022/02/21 10:21:49;;;;;;;0.35;0.35;;;;;;;1.14;98.17;96502.91;5043552;28;20052;-62
2022/02/21 10:24:15;;;;;;;0.40;0.40;;;;;;;1.11;98.06;96524.28;5043496;28;20150;-62
2022/02/21 10:26:42;;;;;;;0.40;0.40;;;;;;;1.14;98.38;96519.09;5043386;28;20097;-62
2022/02/21 10:29:08;;;;;;;0.40;0.40;;;;;;;1.16;98.53;96522.44;5042596;28;20057;-62
2022/02/21 10:31:34;;;;;;;0.40;0.40;;;;;;;1.16;98.39;96530.09;5040827;28;20025;-62
2022/02/21 10:34:07;;;;;;;0.35;0.35;;;;;;;1.20;98.49;96556.34;5042813;28;20027;-62
2022/02/21 10:36:40;;;;;;;0.40;0.40;;;;;;;1.21;98.54;96552.94;5043343;28;20116;-62
2022/02/21 10:39:11;;;;;;;0.40;0.40;;;;;;;1.21;98.57;96569.09;5043187;28;20029;-63
2022/02/21 10:41:52;;;;;;;0.50;0.50;;;;;;;1.19;98.37;96565.75;5043269;28;20080;-62
2022/02/21 10:44:25;;;;;;;0.50;0.50;;;;;;;1.15;98.35;96578.69;5043310;28;20068;-62
2022/02/21 10:47:08;;;;;;;0.40;0.40;;;;;;;1.11;98.40;96583.06;5043218;28;20060;-62
2022/02/21 10:49:38;;;;;;;0.40;0.40;;;;;;;1.12;98.62;96587.25;5043258;28;20221;-62
2022/02/21 10:52:04;;;;;;;0.40;0.40;;;;;;;1.11;98.63;96600.94;5043270;28;20077;-63
2022/02/21 10:54:33;;;;;;;0.40;0.40;;;;;;;1.06;98.40;96593.41;5042854;28;20353;-62
2022/02/21 10:56:59;;;;;;;0.40;0.40;;;;;;;1.08;98.41;96606.13;5043139;28;20036;-63
2022/02/21 10:59:28;;;;;;;0.40;0.40;;;;;;;1.09;98.50;96618.03;5043209;28;20025;-62
2022/02/21 11:01:55;;;;;;;0.38;0.38;;;;;;;1.11;98.71;96614.56;5043259;28;20033;-62
2022/02/21 11:04:24;;;;;;;0.47;0.47;;;;;;;1.10;98.73;96602.66;5043044;28;20105;-62
2022/02/21 11:06:50;;;;;;;0.40;0.40;;;;;;;1.04;98.77;96612.25;5043207;28;20025;-61
2022/02/21 11:09:17;;;;;;;0.43;0.43;;;;;;;1.10;98.79;96633.31;5042956;28;20032;-61
2022/02/21 11:11:47;;;;;;;0.40;0.40;;;;;;;1.09;98.74;96646.13;5043702;28;20207;-62
2022/02/21 11:14:18;;;;;;;0.30;0.30;;;;;;;1.09;98.98;96638.47;5046931;28;20041;-61
2022/02/21 11:16:45;;;;;;;0.40;0.40;;;;;;;1.09;98.86;96646.13;5047084;28;20040;-61
2022/02/21 11:19:11;;;;;;;0.40;0.40;;;;;;;1.07;98.77;96655.56;5046773;28;20481;-63
2022/02/21 11:21:36;;;;;;;0.40;0.40;;;;;;;1.05;98.83;96652.22;5046978;28;20025;-63
2022/02/21 11:24:04;;;;;;;0.40;0.40;;;;;;;1.03;98.97;96659.94;5046971;28;20178;-62
2022/02/21 11:26:35;;;;;;;0.30;0.30;;;;;;;1.01;98.90;96664.25;5046452;28;20017;-62
2022/02/21 11:29:20;;;;;;;0.40;0.40;;;;;;;1.03;98.99;96682.06;5045663;28;20029;-63
2022/02/21 11:31:46;;;;;;;0.40;0.40;;;;;;;1.03;99.01;96692.28;5046157;28;20029;-62
2022/02/21 11:34:13;;;;;;;0.40;0.40;;;;;;;1.05;99.03;96703.31;5046499;28;20053;-62
2022/02/21 11:36:42;;;;;;;0.40;0.40;;;;;;;1.08;99.11;96708.31;5046603;28;20477;-63
2022/02/21 11:39:28;;;;;;;0.40;0.40;;;;;;;1.06;99.09;96702.41;5046658;28;20029;-62
2022/02/21 11:42:19;;;;;;;0.40;0.40;;;;;;;1.07;99.17;96706.66;5046474;28;20063;-62